createdAt,value
2023-01-07T00:00:43.072Z,100.00
2023-01-07T00:03:04.597Z,100.00
2023-01-07T00:05:26.035Z,100.00
2023-01-07T00:07:47.459Z,100.00
2023-01-07T00:10:09.005Z,100.00
2023-01-07T00:12:30.444Z,100.00
2023-01-07T00:14:51.872Z,100.00
2023-01-07T00:17:13.293Z,100.00
2023-01-07T00:19:34.723Z,100.00
2023-01-07T00:21:56.139Z,100.00
2023-01-07T00:24:18.459Z,100.00
2023-01-07T00:26:40.723Z,100.00
2023-01-07T00:29:03.382Z,100.00
2023-01-07T00:31:33.161Z,99.60
2023-01-07T00:33:55.023Z,98.28
2023-01-07T00:36:16.477Z,98.08
2023-01-07T00:38:38.378Z,97.43
2023-01-07T00:40:59.802Z,97.28
2023-01-07T00:43:21.479Z,96.21
2023-01-07T00:45:43.934Z,95.99
2023-01-07T00:48:05.621Z,96.00
2023-01-07T00:50:29.828Z,95.17
2023-01-07T00:52:51.351Z,94.45
2023-01-07T00:55:14.942Z,94.55
2023-01-07T00:57:36.441Z,95.79
2023-01-07T00:59:57.884Z,96.56
2023-01-07T01:02:19.469Z,95.72
2023-01-07T01:04:40.945Z,94.40
2023-01-07T01:07:02.463Z,94.55
2023-01-07T01:09:25.381Z,94.14
2023-01-07T01:11:46.834Z,95.14
2023-01-07T01:14:10.627Z,95.51
2023-01-07T01:16:32.074Z,95.80
2023-01-07T01:18:53.504Z,95.22
2023-01-07T01:21:17.200Z,94.60
2023-01-07T01:23:39.124Z,94.63
2023-01-07T01:26:10.386Z,95.21
2023-01-07T01:28:32.594Z,94.81
2023-01-07T01:30:56.899Z,95.74
2023-01-07T01:33:18.324Z,95.30
2023-01-07T01:35:41.090Z,94.45
2023-01-07T01:38:02.499Z,94.25
2023-01-07T01:40:28.914Z,94.64
2023-01-07T01:42:50.328Z,94.91
2023-01-07T01:45:12.196Z,94.88
2023-01-07T01:47:49.009Z,95.30
2023-01-07T01:50:28.887Z,95.60
2023-01-07T01:53:00.630Z,94.98
2023-01-07T01:55:29.018Z,95.11
2023-01-07T01:57:54.200Z,95.85
2023-01-07T02:00:16.680Z,95.40
2023-01-07T02:02:54.870Z,94.77
2023-01-07T02:05:16.571Z,94.16
2023-01-07T02:07:38.014Z,94.27
2023-01-07T02:10:20.920Z,93.58
2023-01-07T02:13:04.805Z,92.58
2023-01-07T02:15:59.316Z,93.16
2023-01-07T02:18:45.829Z,92.89
2023-01-07T02:21:25.681Z,92.90
2023-01-07T02:24:15.181Z,92.64
2023-01-07T02:27:07.748Z,92.33
2023-01-07T02:30:00.199Z,91.34
2023-01-07T02:32:58.651Z,91.77
2023-01-07T02:35:38.807Z,91.24
2023-01-07T02:38:30.605Z,91.11
2023-01-07T02:41:22.209Z,91.00
2023-01-07T02:44:20.041Z,90.92
2023-01-07T02:46:45.694Z,90.84
2023-01-07T02:49:14.400Z,90.87
2023-01-07T02:51:38.643Z,90.57
2023-01-07T02:54:01.571Z,90.63
2023-01-07T02:56:36.859Z,89.65
2023-01-07T02:59:17.074Z,90.27
2023-01-07T03:02:26.469Z,89.97
2023-01-07T03:05:01.588Z,89.36
2023-01-07T03:08:00.022Z,88.94
2023-01-07T03:10:44.457Z,88.33
2023-01-07T03:13:17.447Z,87.96
2023-01-07T03:15:54.690Z,86.81
2023-01-07T03:18:40.815Z,87.14
2023-01-07T03:21:06.239Z,87.90
2023-01-07T03:23:29.792Z,87.99
2023-01-07T03:25:54.087Z,88.49
2023-01-07T03:28:19.103Z,88.88
2023-01-07T03:30:40.549Z,88.14
2023-01-07T03:33:09.735Z,88.26
2023-01-07T03:35:32.840Z,88.13
2023-01-07T03:37:54.738Z,87.74
2023-01-07T03:40:18.814Z,88.34
2023-01-07T03:42:41.684Z,88.69
2023-01-07T03:45:03.342Z,89.18
2023-01-07T03:47:26.141Z,90.37
2023-01-07T03:49:47.573Z,91.38
2023-01-07T03:52:09.008Z,91.25
2023-01-07T03:54:30.496Z,90.83
2023-01-07T03:56:52.008Z,91.36
2023-01-07T03:59:13.430Z,91.54
2023-01-07T04:01:34.965Z,91.28
2023-01-07T04:03:56.538Z,90.36
2023-01-07T04:06:17.996Z,90.09
2023-01-07T04:08:39.391Z,90.23
2023-01-07T04:11:00.833Z,90.62
2023-01-07T04:13:22.414Z,89.59
2023-01-07T04:15:44.695Z,90.34
2023-01-07T04:18:06.125Z,89.48
2023-01-07T04:20:27.567Z,89.08
2023-01-07T04:22:49.147Z,89.17
2023-01-07T04:25:10.612Z,89.47
2023-01-07T04:27:33.390Z,88.38
2023-01-07T04:29:54.813Z,88.57
2023-01-07T04:32:16.233Z,88.54
2023-01-07T04:34:37.632Z,87.64
2023-01-07T04:36:59.137Z,88.81
2023-01-07T04:39:20.616Z,88.89
2023-01-07T04:41:42.170Z,89.29
2023-01-07T04:44:03.653Z,90.10
2023-01-07T04:46:25.349Z,90.49
2023-01-07T04:48:46.817Z,90.81
2023-01-07T04:51:08.318Z,90.97
2023-01-07T04:53:29.722Z,90.65
2023-01-07T04:55:53.553Z,90.01
2023-01-07T04:58:15.114Z,90.54
2023-01-07T05:00:36.550Z,90.14
2023-01-07T05:02:57.982Z,90.19
2023-01-07T05:05:19.429Z,90.48
2023-01-07T05:07:40.839Z,90.57
2023-01-07T05:10:02.332Z,89.58
2023-01-07T05:12:23.770Z,90.27
2023-01-07T05:14:45.214Z,89.78
2023-01-07T05:17:06.647Z,90.53
2023-01-07T05:19:28.069Z,90.22
2023-01-07T05:21:49.689Z,90.44
2023-01-07T05:24:11.131Z,91.12
2023-01-07T05:26:32.580Z,91.70
2023-01-07T05:28:54.078Z,92.36
2023-01-07T05:31:15.640Z,91.80
2023-01-07T05:33:37.097Z,91.24
2023-01-07T05:35:58.521Z,91.29
2023-01-07T05:38:20.012Z,92.87
2023-01-07T05:40:42.441Z,92.40
2023-01-07T05:43:03.841Z,91.99
2023-01-07T05:45:25.280Z,93.21
2023-01-07T05:47:46.681Z,93.25
2023-01-07T05:50:08.345Z,93.36
2023-01-07T05:52:29.767Z,92.88
2023-01-07T05:54:51.198Z,94.49
2023-01-07T05:57:12.604Z,96.27
2023-01-07T05:59:34.808Z,97.29
2023-01-07T06:01:56.262Z,97.05
2023-01-07T06:04:17.744Z,96.59
2023-01-07T06:06:39.185Z,96.15
2023-01-07T06:09:00.802Z,95.19
2023-01-07T06:11:22.278Z,95.69
2023-01-07T06:13:43.754Z,96.18
2023-01-07T06:16:10.315Z,96.31
2023-01-07T06:18:31.790Z,95.46
2023-01-07T06:20:53.232Z,94.64
2023-01-07T06:23:14.672Z,94.30
2023-01-07T06:25:36.081Z,93.76
2023-01-07T06:27:58.382Z,94.09
2023-01-07T06:30:19.839Z,94.13
2023-01-07T06:32:43.013Z,94.56
2023-01-07T06:35:04.756Z,94.23
2023-01-07T06:37:26.210Z,94.33
2023-01-07T06:39:47.700Z,92.21
2023-01-07T06:42:09.208Z,91.15
2023-01-07T06:44:30.881Z,91.32
2023-01-07T06:46:52.300Z,90.77
2023-01-07T06:49:13.787Z,90.30
2023-01-07T06:51:35.276Z,91.16
2023-01-07T06:53:56.752Z,89.73
2023-01-07T06:56:18.169Z,90.29
2023-01-07T06:58:39.582Z,89.69
2023-01-07T07:01:08.778Z,90.79
2023-01-07T07:03:30.253Z,91.33
2023-01-07T07:05:51.637Z,89.42
2023-01-07T07:08:13.102Z,90.01
2023-01-07T07:10:35.591Z,90.77
2023-01-07T07:12:57.022Z,91.11
2023-01-07T07:15:18.738Z,91.40
2023-01-07T07:17:40.168Z,91.40
2023-01-07T07:20:01.672Z,91.05
2023-01-07T07:22:23.167Z,90.25
2023-01-07T07:24:44.581Z,89.50
2023-01-07T07:27:06.040Z,88.83
2023-01-07T07:29:27.552Z,89.59
2023-01-07T07:31:48.958Z,88.78
2023-01-07T07:34:11.118Z,88.21
2023-01-07T07:36:32.601Z,89.18
2023-01-07T07:38:54.068Z,89.23
2023-01-07T07:41:15.584Z,89.58
2023-01-07T07:43:37.097Z,89.41
2023-01-07T07:45:58.530Z,88.55
2023-01-07T07:48:19.975Z,87.95
2023-01-07T07:50:41.486Z,88.14
2023-01-07T07:53:03.266Z,89.50
2023-01-07T07:55:26.231Z,90.98
2023-01-07T07:57:48.033Z,91.04
2023-01-07T08:00:10.122Z,90.82
2023-01-07T08:02:31.747Z,90.51
2023-01-07T08:04:53.163Z,90.72
2023-01-07T08:07:14.744Z,90.00
2023-01-07T08:09:53.955Z,89.74
2023-01-07T08:12:15.467Z,89.11
2023-01-07T08:14:37.269Z,88.79
2023-01-07T08:16:58.674Z,88.44
2023-01-07T08:19:20.095Z,88.22
2023-01-07T08:21:41.644Z,88.15
2023-01-07T08:24:03.304Z,88.31
2023-01-07T08:26:24.728Z,90.16
2023-01-07T08:28:46.864Z,90.32
2023-01-07T08:31:08.513Z,90.52
2023-01-07T08:33:30.213Z,90.04
2023-01-07T08:35:51.685Z,89.38
2023-01-07T08:38:13.151Z,89.30
2023-01-07T08:40:35.796Z,88.78
2023-01-07T08:43:08.035Z,87.65
2023-01-07T08:45:30.513Z,86.64
2023-01-07T08:47:51.973Z,88.04
2023-01-07T08:50:13.376Z,87.95
2023-01-07T08:52:34.847Z,88.13
2023-01-07T08:54:56.262Z,87.14
2023-01-07T08:57:18.533Z,87.47
2023-01-07T08:59:40.816Z,86.21
2023-01-07T09:02:02.330Z,85.65
2023-01-07T09:04:23.938Z,86.37
2023-01-07T09:06:45.488Z,86.53
2023-01-07T09:09:06.922Z,86.91
2023-01-07T09:11:28.331Z,86.34
2023-01-07T09:13:49.778Z,86.75
2023-01-07T09:16:11.334Z,87.15
2023-01-07T09:18:32.829Z,86.39
2023-01-07T09:20:54.217Z,85.98
2023-01-07T09:23:15.843Z,87.31
2023-01-07T09:25:37.263Z,85.54
2023-01-07T09:27:58.728Z,85.61
2023-01-07T09:30:20.189Z,85.29
2023-01-07T09:32:45.510Z,85.57
2023-01-07T09:35:07.438Z,85.63
2023-01-07T09:37:28.859Z,85.44
2023-01-07T09:39:50.348Z,85.78
2023-01-07T09:42:41.111Z,84.54
2023-01-07T09:45:15.759Z,84.37
2023-01-07T09:47:42.553Z,84.51
2023-01-07T09:50:14.412Z,85.31
2023-01-07T09:52:41.914Z,85.52
2023-01-07T09:55:12.557Z,85.04
2023-01-07T09:57:34.045Z,83.32
2023-01-07T09:59:55.654Z,82.31
2023-01-07T10:02:51.432Z,82.56
2023-01-07T10:05:30.847Z,82.10
2023-01-07T10:08:31.231Z,80.37
2023-01-07T10:11:12.685Z,81.66
2023-01-07T10:13:54.426Z,82.41
2023-01-07T10:16:36.380Z,82.28
2023-01-07T10:19:23.360Z,81.92
2023-01-07T10:21:53.991Z,81.08
2023-01-07T10:24:27.450Z,81.87
2023-01-07T10:26:53.763Z,82.72
2023-01-07T10:29:35.025Z,82.83
2023-01-07T10:32:02.322Z,83.20
2023-01-07T10:34:32.676Z,82.18
2023-01-07T10:37:08.481Z,82.64
2023-01-07T10:39:32.620Z,83.47
2023-01-07T10:42:02.729Z,82.74
2023-01-07T10:44:36.991Z,83.44
2023-01-07T10:47:20.757Z,83.64
2023-01-07T10:50:05.195Z,84.16
2023-01-07T10:52:35.836Z,84.09
2023-01-07T10:55:12.606Z,83.77
2023-01-07T10:57:34.184Z,83.93
2023-01-07T10:59:59.997Z,84.05
2023-01-07T11:02:27.472Z,83.93
2023-01-07T11:04:49.343Z,85.58
2023-01-07T11:07:28.360Z,85.73
2023-01-07T11:09:52.720Z,84.88
2023-01-07T11:12:38.760Z,84.99
2023-01-07T11:15:04.880Z,84.83
2023-01-07T11:17:35.645Z,84.79
2023-01-07T11:19:57.194Z,85.12
2023-01-07T11:22:27.774Z,84.02
2023-01-07T11:24:49.224Z,84.64
2023-01-07T11:27:16.952Z,84.96
2023-01-07T11:29:43.634Z,84.97
2023-01-07T11:32:07.240Z,84.90
2023-01-07T11:34:36.779Z,86.95
2023-01-07T11:36:58.255Z,85.59
2023-01-07T11:39:29.681Z,84.63
2023-01-07T11:41:58.002Z,85.32
2023-01-07T11:44:19.549Z,85.59
2023-01-07T11:46:44.282Z,83.67
2023-01-07T11:49:06.021Z,84.18
2023-01-07T11:51:38.018Z,84.56
2023-01-07T11:54:00.069Z,82.47
2023-01-07T11:56:21.468Z,83.58
2023-01-07T11:58:45.189Z,82.87
2023-01-07T12:01:09.999Z,81.99
2023-01-07T12:03:31.871Z,82.44
2023-01-07T12:05:57.039Z,81.63
2023-01-07T12:08:20.799Z,81.48
2023-01-07T12:10:42.901Z,81.34
2023-01-07T12:13:16.562Z,81.01
2023-01-07T12:15:50.188Z,82.05
2023-01-07T12:18:19.643Z,81.93
2023-01-07T12:21:07.117Z,81.93
2023-01-07T12:23:43.706Z,82.38
2023-01-07T12:26:16.896Z,82.77
2023-01-07T12:29:04.109Z,82.30
2023-01-07T12:31:41.616Z,81.93
2023-01-07T12:34:10.046Z,81.35
2023-01-07T12:37:00.673Z,80.53
2023-01-07T12:39:35.638Z,80.52
2023-01-07T12:42:09.124Z,78.86
2023-01-07T12:44:31.137Z,78.52
2023-01-07T12:47:31.249Z,79.20
2023-01-07T12:50:09.633Z,77.87
2023-01-07T12:52:45.841Z,77.97
2023-01-07T12:55:33.794Z,78.15
2023-01-07T12:58:03.629Z,77.43
2023-01-07T13:00:40.817Z,76.57
2023-01-07T13:03:29.892Z,77.16
2023-01-07T13:06:28.405Z,78.57
2023-01-07T13:09:14.626Z,78.58
2023-01-07T13:12:04.745Z,78.33
2023-01-07T13:14:34.208Z,78.76
2023-01-07T13:17:27.128Z,77.94
2023-01-07T13:19:48.647Z,79.65
2023-01-07T13:22:16.813Z,80.52
2023-01-07T13:25:00.014Z,81.45
2023-01-07T13:27:35.812Z,81.59
2023-01-07T13:30:53.440Z,80.60
2023-01-07T13:33:42.713Z,81.07
2023-01-07T13:36:20.489Z,81.40
2023-01-07T13:38:52.008Z,80.92
2023-01-07T13:41:38.774Z,81.17
2023-01-07T13:44:42.177Z,81.62
2023-01-07T13:47:05.295Z,82.22
2023-01-07T13:49:30.120Z,81.67
2023-01-07T13:51:52.004Z,82.26
2023-01-07T13:54:13.939Z,82.21
2023-01-07T13:56:37.621Z,82.19
2023-01-07T13:59:00.458Z,81.38
2023-01-07T14:01:26.924Z,82.31
2023-01-07T14:03:54.121Z,82.61
2023-01-07T14:06:21.799Z,82.61
2023-01-07T14:08:43.562Z,82.85
2023-01-07T14:11:05.066Z,82.14
2023-01-07T14:13:40.001Z,82.00
2023-01-07T14:16:33.432Z,82.83
2023-01-07T14:19:00.977Z,83.39
2023-01-07T14:21:28.014Z,82.19
2023-01-07T14:23:55.147Z,82.24
2023-01-07T14:26:34.709Z,81.21
2023-01-07T14:29:20.894Z,81.33
2023-01-07T14:31:42.935Z,81.16
2023-01-07T14:34:16.084Z,80.50
2023-01-07T14:37:02.319Z,78.80
2023-01-07T14:39:30.737Z,78.91
2023-01-07T14:42:20.351Z,77.88
2023-01-07T14:44:41.885Z,77.04
2023-01-07T14:47:03.442Z,78.06
2023-01-07T14:49:37.488Z,76.17
2023-01-07T14:52:11.178Z,76.21
2023-01-07T14:54:32.546Z,74.82
2023-01-07T14:56:53.888Z,75.25
2023-01-07T14:59:52.133Z,74.53
2023-01-07T15:02:44.485Z,75.63
2023-01-07T15:05:18.617Z,76.08
2023-01-07T15:07:42.791Z,76.02
2023-01-07T15:10:43.443Z,76.81
2023-01-07T15:13:26.772Z,76.00
2023-01-07T15:16:04.267Z,75.95
2023-01-07T15:18:25.952Z,76.23
2023-01-07T15:20:54.822Z,77.31
2023-01-07T15:23:29.220Z,79.27
2023-01-07T15:26:01.640Z,79.53
2023-01-07T15:28:48.645Z,81.17
2023-01-07T15:31:28.979Z,81.77
2023-01-07T15:34:01.609Z,82.00
2023-01-07T15:36:23.634Z,81.25
2023-01-07T15:38:52.864Z,80.01
2023-01-07T15:41:31.757Z,80.25
2023-01-07T15:43:53.842Z,80.37
2023-01-07T15:46:15.462Z,80.18
2023-01-07T15:48:36.954Z,80.52
2023-01-07T15:51:00.064Z,79.57
2023-01-07T15:53:24.594Z,79.99
2023-01-07T15:55:48.712Z,80.03
2023-01-07T15:58:18.879Z,79.79
2023-01-07T16:00:40.904Z,79.63
2023-01-07T16:03:04.323Z,79.19
2023-01-07T16:05:26.385Z,77.52
2023-01-07T16:07:59.055Z,78.85
2023-01-07T16:10:32.496Z,79.50
2023-01-07T16:13:01.224Z,77.83
2023-01-07T16:15:41.552Z,78.39
2023-01-07T16:18:08.916Z,78.91
2023-01-07T16:20:37.655Z,78.86
2023-01-07T16:23:21.157Z,78.09
2023-01-07T16:25:50.858Z,79.43
2023-01-07T16:28:20.314Z,79.93
2023-01-07T16:30:43.475Z,80.15
2023-01-07T16:33:05.846Z,80.81
2023-01-07T16:35:37.072Z,82.76
2023-01-07T16:38:00.322Z,81.78
2023-01-07T16:40:33.857Z,80.97
2023-01-07T16:42:56.038Z,81.07
2023-01-07T16:45:24.634Z,81.63
2023-01-07T16:48:19.419Z,80.96
2023-01-07T16:50:43.156Z,79.42
2023-01-07T16:53:33.591Z,79.52
2023-01-07T16:56:11.584Z,80.18
2023-01-07T16:58:43.304Z,80.85
2023-01-07T17:01:06.779Z,80.63
2023-01-07T17:03:31.064Z,80.68
2023-01-07T17:06:07.516Z,80.82
2023-01-07T17:08:30.121Z,79.66
2023-01-07T17:11:18.809Z,79.24
2023-01-07T17:13:40.445Z,80.48
2023-01-07T17:16:22.763Z,80.64
2023-01-07T17:18:44.241Z,79.85
2023-01-07T17:21:05.657Z,81.57
2023-01-07T17:23:27.189Z,80.84
2023-01-07T17:25:48.675Z,80.46
2023-01-07T17:28:16.620Z,80.46
2023-01-07T17:30:40.643Z,80.31
2023-01-07T17:33:02.994Z,79.59
2023-01-07T17:35:25.690Z,79.69
2023-01-07T17:37:47.828Z,79.44
2023-01-07T17:40:09.843Z,79.39
2023-01-07T17:42:52.087Z,79.75
2023-01-07T17:45:18.580Z,78.69
2023-01-07T17:47:40.254Z,77.87
2023-01-07T17:50:01.774Z,77.54
2023-01-07T17:52:23.273Z,78.28
2023-01-07T17:54:44.877Z,78.93
2023-01-07T17:57:06.316Z,78.69
2023-01-07T17:59:28.752Z,78.75
2023-01-07T18:01:53.144Z,78.55
2023-01-07T18:04:14.785Z,78.52
2023-01-07T18:06:37.930Z,79.23
2023-01-07T18:08:59.356Z,79.88
2023-01-07T18:11:43.096Z,78.81
2023-01-07T18:14:05.066Z,79.34
2023-01-07T18:16:27.315Z,79.88
2023-01-07T18:18:48.767Z,78.27
2023-01-07T18:21:11.467Z,78.58
2023-01-07T18:23:32.872Z,79.47
2023-01-07T18:25:54.961Z,78.99
2023-01-07T18:28:16.618Z,78.34
2023-01-07T18:30:39.018Z,78.08
2023-01-07T18:33:00.438Z,77.74
2023-01-07T18:35:24.960Z,78.81
2023-01-07T18:37:50.817Z,77.64
2023-01-07T18:40:12.227Z,77.85
2023-01-07T18:42:34.871Z,77.68
2023-01-07T18:44:56.283Z,77.98
2023-01-07T18:47:17.706Z,77.26
2023-01-07T18:49:39.106Z,78.41
2023-01-07T18:52:00.843Z,79.08
2023-01-07T18:54:22.296Z,79.70
2023-01-07T18:56:45.773Z,79.52
2023-01-07T18:59:07.641Z,79.07
2023-01-07T19:01:29.215Z,79.22
2023-01-07T19:03:50.709Z,78.44
2023-01-07T19:06:12.642Z,78.19
2023-01-07T19:08:34.270Z,78.62
2023-01-07T19:10:55.675Z,78.84
2023-01-07T19:13:17.153Z,80.37
2023-01-07T19:15:40.061Z,81.60
2023-01-07T19:18:01.463Z,81.52
2023-01-07T19:20:22.874Z,81.20
2023-01-07T19:22:44.283Z,82.36
2023-01-07T19:25:06.330Z,81.73
2023-01-07T19:27:27.841Z,81.25
2023-01-07T19:29:49.340Z,81.93
2023-01-07T19:32:10.858Z,82.08
2023-01-07T19:34:32.304Z,82.22
2023-01-07T19:36:53.742Z,81.50
2023-01-07T19:39:20.813Z,81.86
2023-01-07T19:41:42.945Z,81.03
2023-01-07T19:44:04.412Z,82.51
2023-01-07T19:46:26.680Z,84.02
2023-01-07T19:48:48.168Z,83.79
2023-01-07T19:51:10.932Z,84.21
2023-01-07T19:53:33.654Z,86.85
2023-01-07T19:56:08.299Z,86.59
2023-01-07T19:58:30.025Z,85.96
2023-01-07T20:00:51.561Z,87.56
2023-01-07T20:03:13.130Z,86.44
2023-01-07T20:05:34.556Z,85.78
2023-01-07T20:07:56.082Z,86.21
2023-01-07T20:10:17.531Z,85.72
2023-01-07T20:12:39.230Z,84.92
2023-01-07T20:15:00.672Z,84.45
2023-01-07T20:17:22.105Z,83.61
2023-01-07T20:19:44.845Z,83.80
2023-01-07T20:22:06.288Z,84.51
2023-01-07T20:24:27.742Z,84.91
2023-01-07T20:26:49.229Z,85.18
2023-01-07T20:29:10.664Z,86.02
2023-01-07T20:31:32.161Z,85.09
2023-01-07T20:33:55.821Z,84.84
2023-01-07T20:36:23.751Z,84.59
2023-01-07T20:38:46.775Z,84.83
2023-01-07T20:41:12.106Z,83.32
2023-01-07T20:43:35.041Z,84.18
2023-01-07T20:45:59.644Z,84.90
2023-01-07T20:48:21.103Z,84.46
2023-01-07T20:50:43.070Z,84.00
2023-01-07T20:53:04.595Z,83.55
2023-01-07T20:55:26.065Z,83.18
2023-01-07T20:57:47.478Z,83.29
2023-01-07T21:00:09.713Z,83.33
2023-01-07T21:02:31.245Z,83.33
2023-01-07T21:04:52.757Z,83.40
2023-01-07T21:07:14.155Z,83.51
2023-01-07T21:09:35.853Z,84.93
2023-01-07T21:11:57.303Z,86.02
2023-01-07T21:14:18.778Z,85.81
2023-01-07T21:16:40.303Z,86.24
2023-01-07T21:19:01.812Z,85.37
2023-01-07T21:21:25.135Z,86.01
2023-01-07T21:23:47.815Z,86.24
2023-01-07T21:26:10.208Z,86.79
2023-01-07T21:28:31.771Z,86.56
2023-01-07T21:30:53.203Z,86.87
2023-01-07T21:33:15.735Z,86.80
2023-01-07T21:35:41.119Z,86.65
2023-01-07T21:38:02.626Z,85.78
2023-01-07T21:40:24.123Z,85.91
2023-01-07T21:42:45.531Z,86.01
2023-01-07T21:45:07.419Z,84.74
2023-01-07T21:47:29.938Z,84.86
2023-01-07T21:49:51.657Z,84.79
2023-01-07T21:52:13.174Z,85.02
2023-01-07T21:54:35.136Z,84.97
2023-01-07T21:56:56.542Z,85.32
2023-01-07T21:59:17.984Z,85.95
2023-01-07T22:01:39.504Z,85.54
2023-01-07T22:04:01.445Z,83.53
2023-01-07T22:06:25.744Z,83.99
2023-01-07T22:08:48.333Z,83.49
2023-01-07T22:11:14.663Z,82.27
2023-01-07T22:13:36.085Z,82.09
2023-01-07T22:15:57.582Z,81.60
2023-01-07T22:18:19.047Z,80.65
2023-01-07T22:20:41.648Z,81.78
2023-01-07T22:23:03.061Z,82.35
2023-01-07T22:25:24.528Z,81.98
2023-01-07T22:27:45.929Z,81.66
2023-01-07T22:30:09.022Z,82.55
2023-01-07T22:32:30.464Z,82.56
2023-01-07T22:34:51.876Z,83.73
2023-01-07T22:37:17.548Z,84.04
2023-01-07T22:39:43.854Z,83.84
2023-01-07T22:42:14.374Z,82.99
2023-01-07T22:44:46.704Z,82.33
2023-01-07T22:47:10.977Z,83.20
2023-01-07T22:49:33.201Z,82.76
2023-01-07T22:51:54.940Z,82.38
2023-01-07T22:54:17.271Z,82.40
2023-01-07T22:56:39.297Z,83.09
2023-01-07T22:59:00.857Z,81.74
2023-01-07T23:01:22.289Z,81.86
2023-01-07T23:03:45.845Z,81.30
2023-01-07T23:06:08.590Z,80.03
2023-01-07T23:08:30.139Z,80.83
2023-01-07T23:10:51.549Z,80.83
2023-01-07T23:13:12.980Z,81.82
2023-01-07T23:15:35.008Z,81.81
2023-01-07T23:17:56.512Z,82.27
2023-01-07T23:20:17.939Z,82.07
2023-01-07T23:22:39.357Z,81.44
2023-01-07T23:25:00.793Z,80.59
2023-01-07T23:27:22.200Z,80.41
2023-01-07T23:29:43.735Z,79.36
2023-01-07T23:32:05.542Z,79.09
2023-01-07T23:34:27.028Z,79.35
2023-01-07T23:36:48.449Z,78.28
2023-01-07T23:39:09.893Z,79.21
2023-01-07T23:41:32.433Z,79.48
2023-01-07T23:43:53.871Z,80.37
2023-01-07T23:46:15.688Z,81.31
2023-01-07T23:48:38.212Z,80.43
2023-01-07T23:51:08.568Z,80.82
2023-01-07T23:53:30.005Z,80.87
2023-01-07T23:55:56.590Z,80.43
2023-01-07T23:58:18.626Z,79.44
